Time;durP1;ratioP1;P1;durP2;ratioP2;P2;SDS_P1;SDS_P2;PMS_P1;PMS_P2;Temp;Humidity;BMP_temperature;BMP_pressure;BME280_temperature;BME280_humidity;BME280_pressure;Samples;Min_cycle;Max_cycle;Signal;HPM_P1;HPM_P2
2023/04/26 00:01:34;;;;;;;3.00;3.00;;;;;;;;;;6217501;23;20699;-65
2023/04/26 00:04:00;;;;;;;3.70;3.50;;;;;;;;;;6216860;23;20383;-65
2023/04/26 00:06:26;;;;;;;3.27;3.17;;;;;;;;;;6217165;23;20390;-65
2023/04/26 00:08:52;;;;;;;3.10;2.90;;;;;;;;;;6215279;23;20418;-65
2023/04/26 00:11:18;;;;;;;2.40;2.30;;;;;;;;;;6217161;23;20462;-65
2023/04/26 00:13:44;;;;;;;2.63;2.63;;;;;;;;;;6216698;23;20485;-65
2023/04/26 00:16:10;;;;;;;3.13;3.03;;;;;;;;;;6217119;23;20375;-65
2023/04/26 00:18:36;;;;;;;2.60;2.50;;;;;;;;;;6216864;23;20752;-65
2023/04/26 00:21:02;;;;;;;3.20;3.10;;;;;;;;;;6216793;23;20371;-65
2023/04/26 00:23:28;;;;;;;2.80;2.80;;;;;;;;;;6216734;23;20851;-65
2023/04/26 00:25:54;;;;;;;3.13;3.13;;;;;;;;;;6216560;23;20374;-67
2023/04/26 00:28:20;;;;;;;3.50;3.40;;;;;;;;;;6217016;23;20470;-66
2023/04/26 00:30:47;;;;;;;3.20;3.10;;;;;;;;;;6216665;23;20367;-66
2023/04/26 00:33:13;;;;;;;2.80;2.80;;;;;;;;;;6216530;23;20763;-65
2023/04/26 00:35:39;;;;;;;2.90;2.90;;;;;;;;;;6216705;23;20382;-65
2023/04/26 00:38:06;;;;;;;3.40;3.30;;;;;;;;;;6216501;23;20383;-65
2023/04/26 00:40:34;;;;;;;3.90;3.80;;;;;;;;;;6216845;23;20379;-65
2023/04/26 00:43:00;;;;;;;2.90;2.70;;;;;;;;;;6216687;23;20516;-65
2023/04/26 00:45:26;;;;;;;3.80;3.70;;;;;;;;;;6216463;23;20398;-65
2023/04/26 00:47:53;;;;;;;3.73;3.50;;;;;;;;;;6216881;23;20380;-65
2023/04/26 00:50:19;;;;;;;4.27;3.80;;;;;;;;;;6216476;23;20375;-65
2023/04/26 00:52:45;;;;;;;3.43;3.13;;;;;;;;;;6216691;23;20419;-66
2023/04/26 00:55:11;;;;;;;3.20;3.10;;;;;;;;;;6217721;23;20383;-66
2023/04/26 00:57:38;;;;;;;3.50;3.40;;;;;;;;;;6216739;23;20398;-65
2023/04/26 01:00:04;;;;;;;2.93;2.93;;;;;;;;;;6216652;23;20704;-65
2023/04/26 01:02:30;;;;;;;3.30;3.20;;;;;;;;;;6216768;23;20372;-65
2023/04/26 01:04:56;;;;;;;3.50;3.40;;;;;;;;;;6216267;23;20375;-65
2023/04/26 01:07:22;;;;;;;3.90;3.80;;;;;;;;;;6216328;23;20379;-65
2023/04/26 01:09:49;;;;;;;3.70;3.60;;;;;;;;;;6214744;23;20402;-65
2023/04/26 01:12:16;;;;;;;3.30;3.20;;;;;;;;;;6214686;23;20754;-65
2023/04/26 01:14:42;;;;;;;4.20;4.00;;;;;;;;;;6216635;23;20445;-65
2023/04/26 01:17:08;;;;;;;4.20;4.00;;;;;;;;;;6216933;23;20367;-65
2023/04/26 01:19:36;;;;;;;4.33;4.13;;;;;;;;;;6216768;23;20375;-65
2023/04/26 01:22:02;;;;;;;7.77;6.83;;;;;;;;;;6214632;23;20383;-66
2023/04/26 01:24:29;;;;;;;7.63;5.93;;;;;;;;;;6216658;23;20466;-65
2023/04/26 01:26:54;;;;;;;5.60;5.37;;;;;;;;;;6216500;23;20379;-65
2023/04/26 01:29:23;;;;;;;6.50;6.10;;;;;;;;;;6217267;23;20403;-66
2023/04/26 01:31:49;;;;;;;4.13;3.90;;;;;;;;;;6216482;23;20375;-67
2023/04/26 01:34:15;;;;;;;6.40;5.80;;;;;;;;;;6214419;23;20514;-66
2023/04/26 01:36:41;;;;;;;5.03;4.73;;;;;;;;;;6216331;23;20382;-65
2023/04/26 01:39:10;;;;;;;4.93;4.53;;;;;;;;;;6216329;23;20383;-66
2023/04/26 01:41:36;;;;;;;4.20;4.00;;;;;;;;;;6216059;23;20450;-65
2023/04/26 01:44:02;;;;;;;4.60;4.50;;;;;;;;;;6216337;23;20516;-67
2023/04/26 01:46:28;;;;;;;4.47;4.27;;;;;;;;;;6216222;23;20394;-65
2023/04/26 01:48:56;;;;;;;5.10;4.70;;;;;;;;;;6215831;23;20407;-65
2023/04/26 01:51:22;;;;;;;3.73;3.63;;;;;;;;;;6216156;23;20379;-65
2023/04/26 01:53:48;;;;;;;2.93;2.83;;;;;;;;;;6216704;23;20441;-67
2023/04/26 01:56:14;;;;;;;3.80;3.60;;;;;;;;;;6215920;23;20751;-65
2023/04/26 01:58:40;;;;;;;3.27;3.13;;;;;;;;;;6214298;23;20387;-66
2023/04/26 02:01:07;;;;;;;3.90;3.80;;;;;;;;;;6216040;23;20387;-65
2023/04/26 02:03:34;;;;;;;3.40;3.20;;;;;;;;;;6215710;23;20380;-65
2023/04/26 02:06:00;;;;;;;4.27;4.07;;;;;;;;;;6214196;23;20394;-65
2023/04/26 02:08:26;;;;;;;3.33;3.23;;;;;;;;;;6215773;23;20445;-65
2023/04/26 02:10:52;;;;;;;2.80;2.80;;;;;;;;;;6215977;23;20387;-66
2023/04/26 02:13:18;;;;;;;3.43;3.33;;;;;;;;;;6216023;23;20516;-65
2023/04/26 02:15:48;;;;;;;4.20;4.00;;;;;;;;;;6215643;23;20845;-65
2023/04/26 02:18:15;;;;;;;3.27;3.10;;;;;;;;;;6216057;23;20465;-66
2023/04/26 02:20:42;;;;;;;4.13;3.93;;;;;;;;;;6215966;23;20711;-65
2023/04/26 02:23:08;;;;;;;10.17;4.07;;;;;;;;;;6215664;23;20411;-65
2023/04/26 02:25:34;;;;;;;3.70;3.60;;;;;;;;;;6215630;23;20375;-65
2023/04/26 02:28:00;;;;;;;4.50;4.20;;;;;;;;;;6215731;23;20390;-66
2023/04/26 02:30:27;;;;;;;4.13;3.83;;;;;;;;;;6215497;23;20379;-65
2023/04/26 02:32:53;;;;;;;4.70;4.50;;;;;;;;;;6215805;23;20510;-65
2023/04/26 02:35:20;;;;;;;4.50;4.20;;;;;;;;;;6215828;23;20391;-65
2023/04/26 02:37:51;;;;;;;5.37;5.07;;;;;;;;;;6215852;23;20371;-66
2023/04/26 02:40:17;;;;;;;4.13;4.03;;;;;;;;;;6215544;23;20359;-66
2023/04/26 02:42:43;;;;;;;5.80;4.03;;;;;;;;;;6215689;23;20409;-65
2023/04/26 02:45:09;;;;;;;7.37;4.37;;;;;;;;;;6215903;23;20834;-65
2023/04/26 02:47:35;;;;;;;3.80;3.70;;;;;;;;;;6215865;23;20375;-65
2023/04/26 02:50:06;;;;;;;4.13;3.93;;;;;;;;;;6215752;23;20383;-65
2023/04/26 02:52:32;;;;;;;4.03;3.90;;;;;;;;;;6215596;23;20722;-65
2023/04/26 02:54:58;;;;;;;3.90;3.70;;;;;;;;;;6215732;23;20428;-66
2023/04/26 02:57:24;;;;;;;5.00;4.70;;;;;;;;;;6215400;23;20709;-65
2023/04/26 02:59:50;;;;;;;5.60;5.30;;;;;;;;;;6215327;23;20411;-68
2023/04/26 03:02:16;;;;;;;5.77;5.37;;;;;;;;;;6215753;23;20378;-65
2023/04/26 03:04:42;;;;;;;4.70;4.50;;;;;;;;;;6215296;23;20379;-65
2023/04/26 03:07:08;;;;;;;5.50;5.30;;;;;;;;;;6215939;23;20372;-65
2023/04/26 03:09:36;;;;;;;6.10;5.70;;;;;;;;;;6217131;23;20434;-66
2023/04/26 03:12:03;;;;;;;6.00;3.53;;;;;;;;;;6217793;23;20371;-66
2023/04/26 03:14:28;;;;;;;3.87;3.77;;;;;;;;;;6217341;23;20456;-66
2023/04/26 03:16:54;;;;;;;4.17;3.87;;;;;;;;;;6215849;23;20896;-65
2023/04/26 03:19:20;;;;;;;3.27;2.87;;;;;;;;;;6217983;23;20936;-66
2023/04/26 03:21:46;;;;;;;3.63;3.43;;;;;;;;;;6217330;23;20383;-66
2023/04/26 03:24:12;;;;;;;3.40;3.40;;;;;;;;;;6217674;23;20387;-66
2023/04/26 03:26:38;;;;;;;4.33;4.23;;;;;;;;;;6217322;23;20957;-65
2023/04/26 03:29:05;;;;;;;4.10;3.90;;;;;;;;;;6217334;23;20726;-65
2023/04/26 03:31:31;;;;;;;6.93;4.70;;;;;;;;;;6217662;23;20741;-65
2023/04/26 03:33:57;;;;;;;6.10;5.80;;;;;;;;;;6217531;23;20453;-65
2023/04/26 03:36:23;;;;;;;8.10;7.37;;;;;;;;;;6191151;23;20849;-65
2023/04/26 03:38:50;;;;;;;12.73;7.17;;;;;;;;;;6217259;23;20431;-65
2023/04/26 03:41:16;;;;;;;7.67;6.87;;;;;;;;;;6217526;23;20382;-67
2023/04/26 03:43:42;;;;;;;9.80;7.07;;;;;;;;;;6215446;23;20450;-66
2023/04/26 03:46:08;;;;;;;7.10;6.47;;;;;;;;;;6217223;23;20379;-68
2023/04/26 03:48:34;;;;;;;6.90;6.23;;;;;;;;;;6217538;23;20884;-65
2023/04/26 03:51:01;;;;;;;5.60;5.30;;;;;;;;;;6191051;23;20892;-66
2023/04/26 03:53:28;;;;;;;5.97;5.43;;;;;;;;;;6217051;23;20757;-66
2023/04/26 03:55:54;;;;;;;5.23;4.93;;;;;;;;;;6217398;23;20699;-65
2023/04/26 03:58:20;;;;;;;5.63;5.27;;;;;;;;;;6217076;23;20860;-66
2023/04/26 04:00:46;;;;;;;6.20;5.80;;;;;;;;;;6217302;23;20377;-65
2023/04/26 04:03:12;;;;;;;4.93;4.73;;;;;;;;;;6217381;23;20395;-66
2023/04/26 04:05:38;;;;;;;4.43;4.10;;;;;;;;;;6217360;23;20851;-65
2023/04/26 04:08:04;;;;;;;4.30;4.20;;;;;;;;;;6216403;23;20387;-65
2023/04/26 04:10:30;;;;;;;3.57;3.47;;;;;;;;;;6217263;23;20411;-65
2023/04/26 04:12:56;;;;;;;4.40;4.10;;;;;;;;;;6216877;23;20800;-65
2023/04/26 04:15:22;;;;;;;4.10;4.00;;;;;;;;;;6217112;23;20701;-65
2023/04/26 04:17:48;;;;;;;5.20;4.93;;;;;;;;;;6216857;23;20371;-65
2023/04/26 04:20:14;;;;;;;4.63;4.30;;;;;;;;;;6216572;23;20940;-65
2023/04/26 04:22:40;;;;;;;5.30;4.70;;;;;;;;;;6216906;23;20394;-67
2023/04/26 04:25:08;;;;;;;5.30;5.00;;;;;;;;;;6217196;23;20479;-65
2023/04/26 04:27:35;;;;;;;5.70;5.37;;;;;;;;;;6217449;23;20883;-66
2023/04/26 04:30:03;;;;;;;4.80;4.60;;;;;;;;;;6216785;23;20374;-66
2023/04/26 04:32:31;;;;;;;5.00;4.80;;;;;;;;;;6217409;23;20367;-66
2023/04/26 04:34:57;;;;;;;6.40;5.20;;;;;;;;;;6217036;23;20437;-66
2023/04/26 04:37:24;;;;;;;4.97;4.67;;;;;;;;;;6216637;23;20439;-65
2023/04/26 04:39:51;;;;;;;5.27;5.07;;;;;;;;;;6217916;23;20465;-65
2023/04/26 04:42:17;;;;;;;5.10;4.50;;;;;;;;;;6216689;23;20374;-65
2023/04/26 04:44:44;;;;;;;5.67;5.23;;;;;;;;;;6216443;23;20435;-66
2023/04/26 04:47:10;;;;;;;5.10;4.80;;;;;;;;;;6216968;23;20374;-66
2023/04/26 04:49:36;;;;;;;4.40;4.10;;;;;;;;;;6216926;23;20375;-65
2023/04/26 04:52:03;;;;;;;5.03;4.80;;;;;;;;;;6216909;23;20426;-66
2023/04/26 04:54:29;;;;;;;5.83;5.53;;;;;;;;;;6216836;23;20430;-66
2023/04/26 04:56:56;;;;;;;5.80;5.40;;;;;;;;;;6216538;23;20403;-65
2023/04/26 04:59:22;;;;;;;5.27;5.00;;;;;;;;;;6216484;23;20690;-66
2023/04/26 05:01:48;;;;;;;5.87;5.60;;;;;;;;;;6216777;23;20379;-66
2023/04/26 05:04:14;;;;;;;6.90;5.07;;;;;;;;;;6216488;23;20376;-65
2023/04/26 05:06:40;;;;;;;6.43;5.93;;;;;;;;;;6216361;23;20752;-68
2023/04/26 05:09:06;;;;;;;6.80;6.30;;;;;;;;;;6216769;23;20441;-68
2023/04/26 05:11:32;;;;;;;9.03;8.20;;;;;;;;;;6216296;23;20478;-69
2023/04/26 05:13:58;;;;;;;8.10;7.30;;;;;;;;;;6216278;23;20469;-70
2023/04/26 05:16:24;;;;;;;7.17;6.57;;;;;;;;;;6216681;23;20752;-68
2023/04/26 05:18:50;;;;;;;9.37;8.47;;;;;;;;;;6214775;23;20422;-65
2023/04/26 05:21:16;;;;;;;6.53;6.13;;;;;;;;;;6216477;23;20706;-72
2023/04/26 05:23:42;;;;;;;7.27;6.73;;;;;;;;;;6216315;23;20411;-68
2023/04/26 05:26:13;;;;;;;9.00;6.00;;;;;;;;;;6216546;23;20376;-67
2023/04/26 05:28:39;;;;;;;7.77;7.20;;;;;;;;;;6216572;23;20888;-71
2023/04/26 05:31:05;;;;;;;6.50;6.10;;;;;;;;;;6216273;23;20367;-67
2023/04/26 05:33:30;;;;;;;9.33;6.50;;;;;;;;;;6216360;23;20900;-72
2023/04/26 05:35:57;;;;;;;7.00;6.50;;;;;;;;;;6216728;23;20371;-69
2023/04/26 05:38:23;;;;;;;8.03;6.17;;;;;;;;;;6216065;23;20757;-67
2023/04/26 05:40:49;;;;;;;6.87;6.27;;;;;;;;;;6216416;23;20467;-67
2023/04/26 05:43:15;;;;;;;5.87;5.40;;;;;;;;;;6216154;23;20456;-66
2023/04/26 05:45:54;;;;;;;7.10;6.60;;;;;;;;;;6216118;23;20894;-66
2023/04/26 05:48:23;;;;;;;6.53;6.10;;;;;;;;;;6216286;23;20373;-66
2023/04/26 05:50:50;;;;;;;5.80;5.33;;;;;;;;;;6216289;23;20453;-67
2023/04/26 05:53:16;;;;;;;7.17;6.60;;;;;;;;;;6215775;23;20544;-66
2023/04/26 05:55:42;;;;;;;6.90;5.97;;;;;;;;;;6216163;23;20860;-66
2023/04/26 05:58:09;;;;;;;6.67;6.10;;;;;;;;;;6216195;23;20681;-66
2023/04/26 06:00:36;;;;;;;6.60;6.20;;;;;;;;;;6216147;23;20429;-68
2023/04/26 06:03:02;;;;;;;6.63;6.03;;;;;;;;;;6216164;23;20471;-62
2023/04/26 06:05:28;;;;;;;8.13;7.30;;;;;;;;;;6216562;23;20371;-68
2023/04/26 06:07:54;;;;;;;7.13;6.73;;;;;;;;;;6216455;23;20696;-68
2023/04/26 06:10:20;;;;;;;6.83;6.27;;;;;;;;;;6216514;23;20374;-66
2023/04/26 06:12:46;;;;;;;8.73;7.93;;;;;;;;;;6215670;23;20477;-67
2023/04/26 06:15:13;;;;;;;10.80;9.17;;;;;;;;;;6215924;23;20407;-67
2023/04/26 06:17:40;;;;;;;6.53;5.93;;;;;;;;;;6216175;23;20371;-67
2023/04/26 06:20:08;;;;;;;6.43;5.83;;;;;;;;;;6216255;23;20837;-68
2023/04/26 06:22:34;;;;;;;9.03;8.13;;;;;;;;;;6215650;23;20838;-66
2023/04/26 06:25:00;;;;;;;13.73;11.57;;;;;;;;;;6215482;23;20378;-66
2023/04/26 06:30:30;;;;;;;8.97;8.07;;;;;;;;;;6215527;23;20355;-66
2023/04/26 06:32:58;;;;;;;20.93;8.00;;;;;;;;;;6215903;23;20418;-66
2023/04/26 06:35:25;;;;;;;8.17;7.57;;;;;;;;;;6215670;23;20437;-68
2023/04/26 06:37:51;;;;;;;11.30;7.77;;;;;;;;;;6215506;23;20446;-69
2023/04/26 06:40:17;;;;;;;15.00;6.83;;;;;;;;;;6215363;23;20720;-68
2023/04/26 06:42:43;;;;;;;8.43;7.63;;;;;;;;;;6215350;23;20375;-71
2023/04/26 06:45:09;;;;;;;8.97;7.50;;;;;;;;;;6216034;23;20370;-71
2023/04/26 06:47:35;;;;;;;12.80;9.27;;;;;;;;;;6215472;23;20379;-67
2023/04/26 06:50:01;;;;;;;9.50;8.60;;;;;;;;;;6213836;23;20398;-70
2023/04/26 06:52:28;;;;;;;10.57;8.87;;;;;;;;;;6215226;23;20706;-67
2023/04/26 06:54:54;;;;;;;18.63;9.50;;;;;;;;;;6215418;23;20768;-66
2023/04/26 06:57:20;;;;;;;9.67;8.67;;;;;;;;;;6215371;23;20861;-66
2023/04/26 06:59:46;;;;;;;7.50;6.90;;;;;;;;;;6215778;23;20390;-67
2023/04/26 07:02:12;;;;;;;8.27;7.57;;;;;;;;;;6215670;23;20379;-66
2023/04/26 07:04:38;;;;;;;7.33;6.60;;;;;;;;;;6215716;23;20383;-65
2023/04/26 07:07:04;;;;;;;7.93;7.27;;;;;;;;;;6215649;23;20872;-70
2023/04/26 07:09:30;;;;;;;7.77;6.60;;;;;;;;;;6215306;23;20390;-66
2023/04/26 07:11:56;;;;;;;6.47;6.07;;;;;;;;;;6215484;23;20688;-66
2023/04/26 07:14:22;;;;;;;8.20;7.40;;;;;;;;;;6215311;23;20453;-66
2023/04/26 07:16:48;;;;;;;8.33;7.47;;;;;;;;;;6164983;23;20754;-66
2023/04/26 07:19:14;;;;;;;8.40;7.70;;;;;;;;;;6215326;23;20378;-67
2023/04/26 07:21:40;;;;;;;7.70;6.93;;;;;;;;;;6215246;23;20383;-68
2023/04/26 07:24:07;;;;;;;8.03;7.20;;;;;;;;;;6215192;23;20379;-66
2023/04/26 07:26:35;;;;;;;7.00;6.37;;;;;;;;;;6215347;23;20409;-66
2023/04/26 07:29:01;;;;;;;7.10;6.50;;;;;;;;;;6215302;23;20695;-66
2023/04/26 07:31:27;;;;;;;7.57;6.87;;;;;;;;;;6215914;23;20888;-67
2023/04/26 07:33:53;;;;;;;9.03;8.10;;;;;;;;;;6215486;23;20438;-67
2023/04/26 07:36:19;;;;;;;12.40;5.90;;;;;;;;;;6215472;23;20853;-67
2023/04/26 07:38:45;;;;;;;6.23;5.83;;;;;;;;;;6215257;23;20704;-67
2023/04/26 07:41:11;;;;;;;9.27;6.90;;;;;;;;;;6215541;23;20464;-67
2023/04/26 07:43:38;;;;;;;6.57;5.93;;;;;;;;;;6215176;23;20422;-66
2023/04/26 07:46:04;;;;;;;6.53;6.10;;;;;;;;;;6215605;23;20410;-68
2023/04/26 07:48:30;;;;;;;7.10;6.50;;;;;;;;;;6215285;23;20371;-70
2023/04/26 07:50:57;;;;;;;7.10;6.60;;;;;;;;;;6215408;23;20844;-66
2023/04/26 07:53:23;;;;;;;6.17;5.70;;;;;;;;;;6215039;23;20730;-67
2023/04/26 07:55:50;;;;;;;6.30;5.37;;;;;;;;;;6215474;23;20414;-67
2023/04/26 07:58:18;;;;;;;6.60;5.40;;;;;;;;;;6217185;23;20406;-66
2023/04/26 08:00:44;;;;;;;5.40;5.10;;;;;;;;;;6216890;23;20371;-68
2023/04/26 08:03:11;;;;;;;6.17;5.57;;;;;;;;;;6217078;23;20418;-66
2023/04/26 08:05:37;;;;;;;5.90;5.60;;;;;;;;;;6216940;23;20899;-67
2023/04/26 08:08:03;;;;;;;15.17;12.10;;;;;;;;;;6217016;23;20375;-66
2023/04/26 08:10:29;;;;;;;6.37;5.87;;;;;;;;;;6216891;23;20375;-68
2023/04/26 08:12:56;;;;;;;7.17;6.57;;;;;;;;;;6216940;23;20415;-65
2023/04/26 08:15:22;;;;;;;9.27;5.70;;;;;;;;;;6217221;23;20468;-70
2023/04/26 08:17:51;;;;;;;6.30;5.77;;;;;;;;;;6217092;23;20454;-67
2023/04/26 08:20:21;;;;;;;6.30;5.80;;;;;;;;;;6217035;23;20458;-66
2023/04/26 08:22:47;;;;;;;5.83;5.43;;;;;;;;;;6217121;23;20455;-68
2023/04/26 08:25:13;;;;;;;7.93;7.23;;;;;;;;;;6217220;23;20892;-68
2023/04/26 08:27:39;;;;;;;28.93;17.57;;;;;;;;;;6216666;23;20425;-68
2023/04/26 08:30:06;;;;;;;12.73;11.37;;;;;;;;;;6217014;23;20410;-66
2023/04/26 08:32:37;;;;;;;10.70;9.20;;;;;;;;;;6216855;23;20537;-63
2023/04/26 08:35:03;;;;;;;6.80;5.67;;;;;;;;;;6216904;23;20844;-66
2023/04/26 08:37:29;;;;;;;10.90;5.40;;;;;;;;;;6216609;23;20418;-68
2023/04/26 08:39:55;;;;;;;6.13;5.23;;;;;;;;;;6214850;23;20939;-70
2023/04/26 08:42:23;;;;;;;6.10;5.70;;;;;;;;;;6216471;23;20375;-67
2023/04/26 08:44:50;;;;;;;5.50;5.03;;;;;;;;;;6216393;23;20978;-67
2023/04/26 08:47:18;;;;;;;6.40;6.00;;;;;;;;;;6216681;23;20410;-67
2023/04/26 08:49:46;;;;;;;6.23;5.67;;;;;;;;;;6216845;23;20379;-67
2023/04/26 08:52:13;;;;;;;6.23;5.67;;;;;;;;;;6216819;23;20395;-68
2023/04/26 08:54:40;;;;;;;25.50;16.47;;;;;;;;;;6216883;23;20987;-68
2023/04/26 08:57:09;;;;;;;9.60;6.07;;;;;;;;;;6216827;23;20379;-68
2023/04/26 08:59:38;;;;;;;5.80;5.50;;;;;;;;;;6216392;23;20371;-67
2023/04/26 09:02:05;;;;;;;4.80;4.50;;;;;;;;;;6216516;23;20371;-67
2023/04/26 09:04:31;;;;;;;5.53;5.03;;;;;;;;;;6216814;23;20464;-67
2023/04/26 09:07:01;;;;;;;6.93;5.60;;;;;;;;;;6216237;23;20387;-67
2023/04/26 09:09:28;;;;;;;5.50;5.10;;;;;;;;;;6216729;23;20895;-67
2023/04/26 09:12:01;;;;;;;6.10;5.63;;;;;;;;;;6216711;23;20429;-66
2023/04/26 09:14:28;;;;;;;6.50;6.00;;;;;;;;;;6216336;23;20505;-68
2023/04/26 09:16:54;;;;;;;5.30;5.00;;;;;;;;;;6216367;23;20374;-68
2023/04/26 09:19:35;;;;;;;6.87;6.27;;;;;;;;;;6216619;23;20383;-67
2023/04/26 09:22:02;;;;;;;6.33;5.47;;;;;;;;;;6214645;23;20391;-67
2023/04/26 09:24:27;;;;;;;5.93;4.97;;;;;;;;;;6216622;23;20472;-68
2023/04/26 09:27:02;;;;;;;5.63;5.30;;;;;;;;;;6216543;23;20411;-68
2023/04/26 09:29:28;;;;;;;5.43;5.10;;;;;;;;;;6216140;23;20458;-68
2023/04/26 09:31:57;;;;;;;8.50;5.87;;;;;;;;;;6216175;23;20402;-66
2023/04/26 09:34:23;;;;;;;5.83;5.20;;;;;;;;;;6216391;23;20503;-68
2023/04/26 09:36:56;;;;;;;5.80;5.40;;;;;;;;;;6215998;23;20458;-68
2023/04/26 09:39:32;;;;;;;5.50;5.20;;;;;;;;;;6216044;23;20713;-66
2023/04/26 09:41:58;;;;;;;6.13;5.70;;;;;;;;;;6216039;23;20743;-66
2023/04/26 09:44:25;;;;;;;4.67;4.27;;;;;;;;;;6215681;23;20431;-79
2023/04/26 09:47:17;;;;;;;5.90;5.40;;;;;;;;;;6216185;23;20372;-67
2023/04/26 09:49:43;;;;;;;5.90;5.50;;;;;;;;;;6210810;23;20422;-66
2023/04/26 09:52:09;;;;;;;5.30;4.83;;;;;;;;;;6214874;23;20415;-67
2023/04/26 09:54:40;;;;;;;6.80;5.60;;;;;;;;;;6215825;23;20433;-67
2023/04/26 09:57:06;;;;;;;4.77;4.53;;;;;;;;;;6215713;23;20368;-70
2023/04/26 09:59:47;;;;;;;4.83;4.50;;;;;;;;;;6214284;23;20387;-67
2023/04/26 10:02:18;;;;;;;4.83;4.43;;;;;;;;;;6216101;23;20501;-68
2023/04/26 10:04:46;;;;;;;3.60;3.40;;;;;;;;;;6216442;23;20376;-65
2023/04/26 10:07:13;;;;;;;4.37;4.10;;;;;;;;;;6216172;23;20404;-67
2023/04/26 10:09:39;;;;;;;4.60;4.20;;;;;;;;;;6216051;23;20480;-69
2023/04/26 10:12:05;;;;;;;2.80;2.70;;;;;;;;;;6215924;23;20842;-66
2023/04/26 10:14:32;;;;;;;3.63;3.50;;;;;;;;;;6216058;23;20513;-68
2023/04/26 10:16:58;;;;;;;3.83;3.53;;;;;;;;;;6215909;23;20387;-66
2023/04/26 10:19:25;;;;;;;3.40;3.30;;;;;;;;;;6215775;23;20383;-66
2023/04/26 10:21:51;;;;;;;4.67;4.27;;;;;;;;;;6216065;23;20382;-66
2023/04/26 10:24:17;;;;;;;6.90;6.30;;;;;;;;;;6215950;23;20913;-67
2023/04/26 10:26:50;;;;;;;4.70;4.40;;;;;;;;;;6215119;23;20398;-66
2023/04/26 10:29:16;;;;;;;3.80;3.67;;;;;;;;;;6215560;23;20467;-67
2023/04/26 10:32:02;;;;;;;3.83;3.63;;;;;;;;;;6215004;23;20427;-67
2023/04/26 10:34:32;;;;;;;7.53;3.90;;;;;;;;;;6213737;23;20942;-68
2023/04/26 10:37:15;;;;;;;4.53;4.23;;;;;;;;;;6215641;23;20402;-67
2023/04/26 10:39:44;;;;;;;6.50;4.90;;;;;;;;;;6215475;23;20413;-66
2023/04/26 10:42:21;;;;;;;3.70;3.60;;;;;;;;;;6215973;23;20378;-66
2023/04/26 10:44:48;;;;;;;7.60;4.90;;;;;;;;;;6215510;23;20426;-66
2023/04/26 10:47:26;;;;;;;4.30;4.10;;;;;;;;;;6215623;23;20461;-66
2023/04/26 10:49:53;;;;;;;5.20;4.73;;;;;;;;;;6215486;23;20383;-66
2023/04/26 10:52:21;;;;;;;3.63;3.53;;;;;;;;;;6215597;23;20367;-66
2023/04/26 10:54:52;;;;;;;3.73;3.53;;;;;;;;;;6215779;23;20485;-65
2023/04/26 10:57:19;;;;;;;3.40;3.30;;;;;;;;;;6215485;23;20375;-69
2023/04/26 11:00:04;;;;;;;3.90;3.80;;;;;;;;;;6213421;23;20427;-68
2023/04/26 11:02:46;;;;;;;4.10;3.30;;;;;;;;;;6215680;23;20367;-68
2023/04/26 11:05:32;;;;;;;8.03;3.10;;;;;;;;;;6215564;23;20446;-67
2023/04/26 11:08:24;;;;;;;5.00;3.43;;;;;;;;;;6215755;23;20383;-68
2023/04/26 11:10:51;;;;;;;3.40;3.30;;;;;;;;;;6210307;23;20456;-66
2023/04/26 11:13:18;;;;;;;3.20;3.00;;;;;;;;;;6215691;23;20442;-66
2023/04/26 11:15:45;;;;;;;4.33;4.10;;;;;;;;;;6216356;23;20390;-66
2023/04/26 11:18:11;;;;;;;3.77;3.10;;;;;;;;;;6215647;23;20367;-71
2023/04/26 11:20:37;;;;;;;4.23;3.80;;;;;;;;;;6215211;23;20680;-68
2023/04/26 11:23:03;;;;;;;3.73;3.43;;;;;;;;;;6215666;23;20382;-71
2023/04/26 11:25:29;;;;;;;2.63;2.63;;;;;;;;;;6215794;23;20442;-68
2023/04/26 11:27:59;;;;;;;3.83;3.63;;;;;;;;;;6215544;23;20888;-68
2023/04/26 11:30:25;;;;;;;2.80;2.70;;;;;;;;;;6215359;23;20383;-70
2023/04/26 11:32:51;;;;;;;3.83;3.53;;;;;;;;;;6217219;23;20429;-69
2023/04/26 11:35:17;;;;;;;4.60;4.37;;;;;;;;;;6217240;23;20383;-69
2023/04/26 11:37:45;;;;;;;4.00;3.80;;;;;;;;;;6215605;23;20422;-73
2023/04/26 11:40:11;;;;;;;4.33;4.13;;;;;;;;;;6217516;23;20387;-66
2023/04/26 11:42:37;;;;;;;4.47;4.27;;;;;;;;;;6216986;23;20705;-69
2023/04/26 11:45:05;;;;;;;2.57;2.47;;;;;;;;;;6217272;23;20376;-72
2023/04/26 11:47:32;;;;;;;4.30;3.90;;;;;;;;;;6217096;23;20370;-69
2023/04/26 11:49:58;;;;;;;4.13;3.93;;;;;;;;;;6217310;23;20391;-72
2023/04/26 11:52:24;;;;;;;4.50;4.40;;;;;;;;;;6217426;23;20685;-69
2023/04/26 11:55:02;;;;;;;4.63;3.80;;;;;;;;;;6217011;23;20434;-71
2023/04/26 11:57:33;;;;;;;4.87;4.47;;;;;;;;;;6217424;23;20377;-70
2023/04/26 12:00:13;;;;;;;4.73;4.20;;;;;;;;;;6217093;23;20363;-68
2023/04/26 12:02:40;;;;;;;4.47;4.07;;;;;;;;;;6216977;23;20935;-67
2023/04/26 12:05:07;;;;;;;3.47;3.37;;;;;;;;;;6216799;23;20387;-65
2023/04/26 12:07:37;;;;;;;4.07;3.83;;;;;;;;;;6217268;23;20371;-66
2023/04/26 12:10:18;;;;;;;3.00;2.90;;;;;;;;;;6216786;23;20386;-67
2023/04/26 12:12:47;;;;;;;5.90;4.33;;;;;;;;;;6215219;23;20375;-67
2023/04/26 12:15:14;;;;;;;3.97;3.50;;;;;;;;;;6216942;23;20383;-68
2023/04/26 12:17:40;;;;;;;3.20;3.10;;;;;;;;;;6215410;23;20394;-71
2023/04/26 12:20:10;;;;;;;4.07;3.43;;;;;;;;;;6217061;23;20387;-68
2023/04/26 12:22:36;;;;;;;3.63;3.37;;;;;;;;;;6217051;23;20375;-70
2023/04/26 12:25:09;;;;;;;3.63;3.33;;;;;;;;;;6217470;23;20454;-66
2023/04/26 12:27:35;;;;;;;3.57;3.27;;;;;;;;;;6216852;23;20372;-67
2023/04/26 12:30:01;;;;;;;3.50;3.40;;;;;;;;;;6217076;23;20406;-67
2023/04/26 12:32:27;;;;;;;3.63;3.40;;;;;;;;;;6216737;23;20375;-67
2023/04/26 12:34:53;;;;;;;3.23;3.03;;;;;;;;;;6216967;23;20427;-67
2023/04/26 12:37:19;;;;;;;5.67;3.30;;;;;;;;;;6216996;23;20429;-66
2023/04/26 12:39:45;;;;;;;3.87;3.60;;;;;;;;;;6216444;23;20374;-70
2023/04/26 12:42:11;;;;;;;3.77;3.57;;;;;;;;;;6216130;23;20437;-67
2023/04/26 12:44:37;;;;;;;3.00;2.87;;;;;;;;;;6216529;23;20811;-67
2023/04/26 12:47:03;;;;;;;3.37;3.23;;;;;;;;;;6216943;23;20375;-67
2023/04/26 12:49:29;;;;;;;3.30;3.10;;;;;;;;;;6216755;23;20378;-69
2023/04/26 12:51:55;;;;;;;3.40;3.10;;;;;;;;;;6216639;23;20837;-67
2023/04/26 12:54:21;;;;;;;3.80;3.70;;;;;;;;;;6216807;23;20438;-69
2023/04/26 12:56:48;;;;;;;4.80;4.40;;;;;;;;;;6216946;23;20376;-67
2023/04/26 12:59:14;;;;;;;4.17;3.87;;;;;;;;;;6217029;23;20379;-66
2023/04/26 13:01:40;;;;;;;3.87;3.50;;;;;;;;;;6216430;23;20876;-69
2023/04/26 13:04:07;;;;;;;3.40;3.20;;;;;;;;;;6216772;23;20374;-70
2023/04/26 13:09:37;;;;;;;4.00;3.80;;;;;;;;;;6216496;23;20363;-67
2023/04/26 13:12:03;;;;;;;4.20;3.90;;;;;;;;;;6216746;23;20485;-70
2023/04/26 13:14:29;;;;;;;2.80;2.70;;;;;;;;;;6216618;23;20493;-67
2023/04/26 13:16:55;;;;;;;3.50;3.20;;;;;;;;;;6216295;23;20925;-67
2023/04/26 13:19:21;;;;;;;5.07;3.27;;;;;;;;;;6216598;23;20689;-68
2023/04/26 13:21:47;;;;;;;3.70;3.50;;;;;;;;;;6216563;23;20371;-68
2023/04/26 13:24:13;;;;;;;3.30;3.00;;;;;;;;;;6215319;23;20387;-67
2023/04/26 13:26:39;;;;;;;2.70;2.60;;;;;;;;;;6216217;23;20383;-68
2023/04/26 13:29:05;;;;;;;2.63;2.53;;;;;;;;;;6216438;23;20387;-69
2023/04/26 13:31:31;;;;;;;2.47;2.37;;;;;;;;;;6216307;23;20947;-67
2023/04/26 13:33:57;;;;;;;2.77;2.67;;;;;;;;;;6216342;23;20434;-67
2023/04/26 13:36:23;;;;;;;2.77;2.67;;;;;;;;;;6215803;23;20485;-67
2023/04/26 13:38:48;;;;;;;3.23;3.10;;;;;;;;;;6216224;23;20375;-70
2023/04/26 13:41:15;;;;;;;2.77;2.67;;;;;;;;;;6215866;23;20512;-67
2023/04/26 13:43:41;;;;;;;4.13;3.73;;;;;;;;;;6216079;23;20986;-69
2023/04/26 13:46:07;;;;;;;2.90;2.80;;;;;;;;;;6216118;23;20402;-67
2023/04/26 13:48:33;;;;;;;2.90;2.33;;;;;;;;;;6216069;23;20717;-67
2023/04/26 13:50:59;;;;;;;2.70;2.50;;;;;;;;;;6215878;23;20371;-67
2023/04/26 13:53:25;;;;;;;3.40;3.23;;;;;;;;;;6215628;23;20423;-68
2023/04/26 13:55:51;;;;;;;13.67;12.27;;;;;;;;;;6215683;23;20472;-67
2023/04/26 13:58:17;;;;;;;3.20;3.10;;;;;;;;;;6216378;23;20438;-68
2023/04/26 14:00:43;;;;;;;2.60;2.50;;;;;;;;;;6216043;23;20383;-69
2023/04/26 14:03:09;;;;;;;5.33;2.80;;;;;;;;;;6216115;23;20752;-68
2023/04/26 14:05:35;;;;;;;3.50;3.30;;;;;;;;;;6214239;23;20391;-67
2023/04/26 14:08:01;;;;;;;4.43;2.43;;;;;;;;;;6216094;23;20453;-67
2023/04/26 14:10:27;;;;;;;2.00;1.90;;;;;;;;;;6214148;23;20387;-68
2023/04/26 14:12:55;;;;;;;2.83;2.73;;;;;;;;;;6215635;23;20521;-67
2023/04/26 14:15:21;;;;;;;5.07;3.97;;;;;;;;;;6215631;23;20384;-68
2023/04/26 14:17:47;;;;;;;2.97;2.77;;;;;;;;;;6216069;23;20457;-67
2023/04/26 14:20:13;;;;;;;2.70;2.60;;;;;;;;;;6215808;23;20398;-68
2023/04/26 14:22:39;;;;;;;2.43;2.33;;;;;;;;;;6216000;23;20386;-70
2023/04/26 14:25:05;;;;;;;3.33;3.10;;;;;;;;;;6216773;23;20461;-68
2023/04/26 14:27:32;;;;;;;2.50;2.40;;;;;;;;;;6215588;23;20367;-70
2023/04/26 14:29:58;;;;;;;5.13;3.10;;;;;;;;;;6215688;23;20449;-67
2023/04/26 14:32:24;;;;;;;2.40;2.40;;;;;;;;;;6214008;23;20416;-68
2023/04/26 14:34:50;;;;;;;2.77;2.67;;;;;;;;;;6215377;23;20427;-69
2023/04/26 14:37:16;;;;;;;3.30;3.30;;;;;;;;;;6215484;23;20440;-67
2023/04/26 14:39:42;;;;;;;9.00;3.23;;;;;;;;;;6215499;23;20378;-68
2023/04/26 14:42:08;;;;;;;3.47;3.20;;;;;;;;;;6215768;23;20375;-70
2023/04/26 14:44:35;;;;;;;3.37;3.27;;;;;;;;;;6215299;23;20772;-68
2023/04/26 14:47:01;;;;;;;3.43;3.17;;;;;;;;;;6216273;23;20791;-71
2023/04/26 14:49:27;;;;;;;2.30;2.30;;;;;;;;;;6215924;23;20383;-71